Last 7 Days

Abernathy 1 (AB1)

Hourly Data | America/Los_Angeles
as of 6/18/19 10:45 PM PDT
Date & Time Temp (°F) RH (%) Dew Pt (°F) Wind Spd (mph) Wind Dir (°) Wind Gust (mph) Wind Gst Dir (°) Latest Rain (In) Solar Rad Tot Hr (Cal/cm2) Daily Rain (In) Daily Min Temp (°F) Daily Max Temp (°F)
6/18/19 - 2100 63.5 76 55.8 10.0 SW | 231 17.0 SW | 219 0.00 1 0.00 59.0 85.9
6/18/19 - 2000 71.7 62 57.8 9.1 SW | 227 14.0 SSW | 208 0.00 10 0.00 59.0 85.9
6/18/19 - 1900 78.5 53 59.8 9.3 SW | 235 15.7 SSW | 213 0.00 23 0.00 59.0 85.9
6/18/19 - 1800 83.9 47 61.6 9.1 SW | 233 15.5 SW | 223 0.00 36 0.00 59.0 85.9
6/18/19 - 1700 84.4 47 62.2 9.8 SW | 230 15.5 SW | 231 0.00 49 0.00 59.0 85.9
6/18/19 - 1600 85.1 49 63.6 10.4 SW | 228 16.2 W | 266 0.00 59 0.00 59.0 85.9
6/18/19 - 1500 84.5 50 63.7 10.6 SW | 232 17.8 SW | 233 0.00 66 0.00 59.0 85.5
6/18/19 - 1400 83.9 50 63.2 9.7 SW | 231 17.2 SW | 217 0.00 69 0.00 59.0 84.6
6/18/19 - 1300 81.4 50 61.2 10.5 SW | 231 15.5 SW | 228 0.00 69 0.00 59.0 82.7
6/18/19 - 1200 79.2 52 60.0 9.8 SW | 234 15.8 SW | 216 0.00 64 0.00 59.0 80.4
6/18/19 - 1100 76.0 55 58.6 9.1 SW | 235 13.3 WSW | 249 0.00 56 0.00 59.0 78.2
6/18/19 - 1000 71.9 60 57.2 8.2 SW | 227 14.2 SW | 232 0.00 45 0.00 59.0 73.9
6/18/19 - 0900 67.6 69 56.9 7.6 SW | 223 12.1 SSW | 206 0.00 32 0.00 59.0 69.7
6/18/19 - 0800 64.2 77 56.8 5.8 SW | 231 11.1 SSW | 203 0.00 18 0.00 59.0 66.0
6/18/19 - 0700 60.4 84 55.6 4.5 SW | 232 7.8 SW | 214 0.00 2 0.00 59.0 62.3
6/18/19 - 0600 59.5 85 55.2 5.7 SW | 229 9.5 SSW | 202 0.00 0 0.00 59.0 61.7
6/18/19 - 0500 59.6 86 55.4 5.6 SW | 234 9.6 SW | 223 0.00 0 0.00 59.0 61.7
6/18/19 - 0400 60.5 84 55.8 6.2 SW | 227 11.0 WSW | 245 0.00 0 0.00 60.2 61.7
6/18/19 - 0300 60.8 83 55.5 7.0 SW | 225 12.1 WSW | 257 0.00 0 0.00 60.3 61.7
6/18/19 - 0200 61.0 81 55.1 7.0 SW | 226 12.1 SW | 234 0.00 0 0.00 60.6 61.7
6/18/19 - 0100 61.0 81 55.1 7.0 WSW | 246 12.1 WSW | 249 0.00 0 0.00 60.6 61.7
6/18/19 - 0000 61.3 78 54.5 6.8 WSW | 244 13.0 SW | 234 0.00 0 0.00 54.5 84.5
6/17/19 - 2300 62.2 75 54.3 7.2 SW | 232 12.1 SW | 232 0.00 0 0.00 54.5 84.5
6/17/19 - 2200 63.5 73 54.7 8.6 SW | 227 14.2 SW | 225 0.00 0 0.00 54.5 84.5
6/17/19 - 2100 66.4 68 55.6 8.7 SW | 221 15.8 SW | 220 0.00 1 0.00 54.5 84.5
6/17/19 - 2000 72.7 59 57.4 8.0 SW | 221 13.2 SSW | 193 0.00 10 0.00 54.5 84.5
6/17/19 - 1900 77.2 53 58.6 8.8 WSW | 249 14.3 W | 264 0.00 22 0.00 54.5 84.5
6/17/19 - 1800 80.5 50 60.2 9.0 SW | 232 15.7 WSW | 250 0.00 35 0.00 54.5 84.5
6/17/19 - 1700 82.1 49 61.0 10.0 SW | 224 15.7 SSW | 206 0.00 48 0.00 54.5 84.5
6/17/19 - 1600 81.5 50 61.0 10.8 SW | 230 16.2 W | 272 0.00 58 0.00 54.5 84.5
6/17/19 - 1500 83.7 48 62.0 10.0 WSW | 238 17.7 SSW | 213 0.00 65 0.00 54.5 84.5
6/17/19 - 1400 82.1 50 61.8 9.3 WSW | 237 14.8 W | 268 0.00 68 0.00 54.5 84.4
6/17/19 - 1300 79.4 52 60.3 9.0 SW | 230 14.3 WSW | 256 0.00 67 0.00 54.5 80.8
6/17/19 - 1200 76.5 54 58.8 8.0 SW | 233 12.8 SW | 225 0.00 63 0.00 54.5 78.4
6/17/19 - 1100 72.2 60 57.4 7.8 SW | 233 12.5 WSW | 258 0.00 55 0.00 54.5 74.5
6/17/19 - 1000 68.4 65 56.3 7.6 SW | 236 12.6 SW | 222 0.00 44 0.00 54.5 70.3
6/17/19 - 0900 64.3 72 55.0 6.8 WSW | 242 13.3 SW | 232 0.00 31 0.00 54.5 66.9
6/17/19 - 0800 59.3 82 53.8 7.7 WSW | 246 11.6 SSW | 209 0.00 17 0.00 54.5 62.0
6/17/19 - 0700 56.1 88 52.5 7.9 WSW | 239 14.3 WSW | 248 0.00 3 0.00 54.5 57.5
6/17/19 - 0600 55.4 88 52.0 7.3 WSW | 245 12.5 W | 260 0.00 0 0.00 54.5 55.8
6/17/19 - 0500 55.4 87 51.7 9.0 WSW | 247 15.5 WSW | 258 0.00 0 0.00 54.5 55.8
6/17/19 - 0400 55.4 87 51.5 9.1 WSW | 249 14.5 SW | 234 0.00 0 0.00 54.5 55.8
6/17/19 - 0300 55.4 86 51.4 8.3 WSW | 245 15.3 SSW | 213 0.00 0 0.00 54.5 55.7
6/17/19 - 0200 54.9 87 51.2 10.0 WSW | 248 15.3 W | 260 0.00 0 0.00 54.5 55.3
6/17/19 - 0100 54.8 88 51.2 10.1 WSW | 246 16.5 WSW | 244 0.00 0 0.00 54.6 55.1
6/17/19 - 0000 54.8 88 51.4 10.0 SW | 234 18.3 WSW | 253 0.00 0 0.00 51.7 77.4
6/16/19 - 2300 55.4 87 51.6 10.3 SW | 231 17.8 WSW | 238 0.00 0 0.00 51.7 77.4
6/16/19 - 2200 56.4 84 51.8 11.3 SW | 236 17.7 SW | 228 0.00 0 0.00 51.7 77.4
6/16/19 - 2100 59.4 78 52.7 12.0 WSW | 243 18.8 SSW | 203 0.00 1 0.00 51.7 77.4
6/16/19 - 2000 64.6 69 54.0 11.2 WSW | 238 19.4 W | 264 0.00 9 0.00 51.7 77.4
6/16/19 - 1900 69.7 62 56.0 11.2 SW | 235 19.2 WSW | 250 0.00 21 0.00 51.7 77.4
6/16/19 - 1800 71.9 59 56.9 10.5 SW | 235 16.7 W | 281 0.00 25 0.00 51.7 77.4
6/16/19 - 1700 75.0 55 57.6 11.7 SW | 231 18.2 SW | 225 0.00 46 0.00 51.7 77.4
6/16/19 - 1600 76.9 53 58.4 10.5 SW | 236 16.5 W | 259 0.00 59 0.00 51.7 77.4
6/16/19 - 1500 76.0 54 58.0 10.6 SW | 234 16.7 WSW | 248 0.00 66 0.00 51.7 77.3
6/16/19 - 1400 73.5 56 56.9 10.0 SW | 230 15.3 W | 266 0.00 68 0.00 51.7 74.9
6/16/19 - 1300 69.6 60 55.1 10.2 SW | 236 15.3 SW | 232 0.00 68 0.00 51.7 71.3
6/16/19 - 1200 66.5 64 54.2 11.0 WSW | 240 18.2 SSW | 213 0.00 64 0.00 51.7 67.9
6/16/19 - 1100 64.6 68 53.9 9.9 WSW | 241 15.8 W | 261 0.00 56 0.00 51.7 66.0
6/16/19 - 1000 61.6 74 53.1 9.3 WSW | 244 15.0 W | 266 0.00 45 0.00 51.7 63.7
6/16/19 - 0900 58.7 80 52.4 8.6 WSW | 244 13.8 SSW | 208 0.00 33 0.00 51.7 60.5
6/16/19 - 0800 55.7 86 51.6 7.2 WSW | 245 11.8 SW | 227 0.00 17 0.00 51.7 57.5
6/16/19 - 0700 53.1 91 50.6 6.8 WSW | 245 11.5 WSW | 238 0.00 4 0.00 51.7 54.5
6/16/19 - 0600 52.3 92 49.9 6.4 WSW | 253 12.8 W | 261 0.00 0 0.00 51.7 54.5
6/16/19 - 0500 52.1 92 49.7 7.2 WSW | 248 11.5 WSW | 256 0.00 0 0.00 51.7 54.5
6/16/19 - 0400 52.1 92 49.7 7.2 WSW | 253 11.8 W | 272 0.00 0 0.00 51.7 54.5
6/16/19 - 0300 52.5 91 49.9 7.6 WSW | 241 13.2 SSW | 204 0.00 0 0.00 51.8 54.5
6/16/19 - 0200 53.0 90 50.0 7.8 WSW | 248 13.6 SW | 235 0.00 0 0.00 52.3 54.5
6/16/19 - 0100 53.8 88 50.4 8.6 WSW | 248 15.0 W | 271 0.00 0 0.00 53.3 54.5
6/16/19 - 0000 54.4 88 50.8 8.4 WSW | 248 14.3 SW | 233 0.00 0 0.00 53.2 73.3
6/15/19 - 2300 55.2 86 51.0 8.2 WSW | 246 13.0 W | 280 0.00 0 0.00 53.2 73.3
6/15/19 - 2200 56.7 82 51.2 8.7 WSW | 245 14.2 W | 268 0.00 0 0.00 53.2 73.3
6/15/19 - 2100 58.9 77 51.7 9.4 WSW | 248 15.8 WSW | 252 0.00 1 0.00 53.2 73.3
6/15/19 - 2000 63.0 71 53.4 10.1 WSW | 241 15.8 SW | 232 0.00 10 0.00 53.2 73.3
6/15/19 - 1900 66.5 64 54.1 11.3 WSW | 238 17.8 WSW | 240 0.00 20 0.00 53.2 73.3
6/15/19 - 1800 69.9 59 54.8 11.6 WSW | 237 18.7 WSW | 246 0.00 39 0.00 53.2 73.3
6/15/19 - 1700 71.3 57 55.3 11.1 SW | 236 18.2 WSW | 242 0.00 45 0.00 53.2 73.3
6/15/19 - 1600 72.2 56 55.7 10.6 SW | 234 16.2 WNW | 283 0.00 59 0.00 53.2 73.3
6/15/19 - 1500 71.8 57 55.6 11.2 SW | 235 17.7 WSW | 243 0.00 67 0.00 53.2 73.3
6/15/19 - 1400 70.6 59 55.4 10.7 SW | 234 17.8 WSW | 258 0.00 70 0.00 53.2 72.1
6/15/19 - 1300 67.9 62 54.4 10.3 SW | 230 16.3 SW | 236 0.00 68 0.00 53.2 69.1
6/15/19 - 1200 66.0 65 53.9 10.7 SW | 235 17.2 SW | 221 0.00 65 0.00 53.2 67.5
6/15/19 - 1100 63.3 69 53.0 11.0 SW | 233 17.2 SW | 214 0.00 57 0.00 53.2 64.9
6/15/19 - 1000 61.6 72 52.4 9.7 WSW | 242 14.8 SW | 224 0.00 46 0.00 53.2 63.2
6/15/19 - 0900 58.0 78 51.2 8.7 WSW | 249 14.0 W | 260 0.00 29 0.00 53.2 59.7
6/15/19 - 0800 55.1 83 50.2 8.6 WSW | 251 15.8 W | 264 0.00 16 0.00 53.2 56.5
6/15/19 - 0700 53.9 86 49.9 8.0 WSW | 253 13.2 SW | 227 0.00 3 0.00 53.2 54.4
6/15/19 - 0600 53.8 86 49.8 8.3 WSW | 254 14.0 WSW | 257 0.00 0 0.00 53.2 54.4
6/15/19 - 0500 54.0 86 50.1 8.0 WSW | 254 14.6 WSW | 243 0.00 0 0.00 53.2 54.4
6/15/19 - 0400 53.9 86 49.9 9.0 WSW | 255 17.3 NNW | 328 0.00 0 0.00 53.2 54.4
6/15/19 - 0300 53.8 87 49.9 9.0 WSW | 256 18.3 SW | 234 0.00 0 0.00 53.2 54.4
6/15/19 - 0200 53.7 86 49.5 10.1 WSW | 250 17.5 WSW | 251 0.00 0 0.00 53.2 54.4
6/15/19 - 0100 54.0 85 49.5 9.9 WSW | 242 16.3 W | 260 0.00 0 0.00 53.6 54.4
6/15/19 - 0000 54.9 82 49.6 11.1 WSW | 241 18.2 SW | 236 0.00 0 0.00 53.4 77.8
6/14/19 - 2300 55.2 82 49.8 10.7 WSW | 244 16.5 SW | 227 0.00 0 0.00 53.4 77.8
6/14/19 - 2200 57.4 76 49.9 11.4 WSW | 246 20.0 SW | 223 0.00 0 0.00 53.4 77.8
6/14/19 - 2100 61.0 70 51.3 11.0 WSW | 247 18.8 SW | 220 0.00 1 0.00 53.4 77.8
6/14/19 - 2000 65.8 68 54.9 8.9 WSW | 237 16.8 W | 263 0.00 9 0.00 53.4 77.8
6/14/19 - 1900 69.6 61 55.8 12.5 SW | 232 18.5 WSW | 249 0.00 22 0.00 53.4 77.8
6/14/19 - 1800 73.9 56 57.3 12.5 SW | 234 18.0 SSW | 205 0.00 36 0.00 53.4 77.8
6/14/19 - 1700 76.0 54 58.3 11.7 WSW | 238 17.3 SW | 220 0.00 49 0.00 53.4 77.8
6/14/19 - 1600 77.0 53 58.4 11.4 WSW | 238 17.7 W | 259 0.00 59 0.00 53.4 77.8
6/14/19 - 1500 76.3 53 57.7 11.4 SW | 234 19.4 WSW | 251 0.00 66 0.00 53.4 77.8
6/14/19 - 1400 74.3 55 57.2 11.0 SW | 232 17.0 WSW | 256 0.00 69 0.00 53.4 75.7
6/14/19 - 1300 72.8 56 56.5 10.0 SW | 231 16.5 SW | 218 0.00 69 0.00 53.4 73.6
6/14/19 - 1200 70.0 61 55.9 9.1 SW | 234 14.3 WSW | 247 0.00 64 0.00 53.4 71.8
6/14/19 - 1100 65.8 67 54.6 9.6 SW | 235 14.6 SSW | 210 0.00 56 0.00 53.4 67.8
6/14/19 - 1000 62.9 72 53.7 9.3 WSW | 240 14.3 WSW | 256 0.00 46 0.00 53.4 64.5
6/14/19 - 0900 60.3 77 53.0 7.9 WSW | 246 12.5 W | 262 0.00 33 0.00 53.4 61.8
6/14/19 - 0800 57.6 83 52.4 6.9 WSW | 253 12.6 SSW | 197 0.00 16 0.00 53.4 59.0
6/14/19 - 0700 55.1 88 51.6 6.2 WSW | 258 12.3 SSW | 207 0.00 3 0.00 53.4 56.3
6/14/19 - 0600 54.1 89 50.9 5.9 W | 262 12.1 W | 271 0.00 0 0.00 53.4 55.8
6/14/19 - 0500 54.0 90 51.0 7.5 WSW | 258 13.8 WSW | 246 0.00 0 0.00 53.4 55.8
6/14/19 - 0400 54.0 90 51.0 9.5 WSW | 248 16.0 S | 181 0.00 0 0.00 53.4 55.8
6/14/19 - 0300 54.1 89 51.0 8.8 WSW | 252 16.3 WSW | 250 0.00 0 0.00 53.9 55.8
6/14/19 - 0200 54.4 88 51.0 10.7 WSW | 244 18.8 WSW | 245 0.00 0 0.00 54.0 55.8
6/14/19 - 0100 55.1 86 51.1 10.6 WSW | 243 17.2 SW | 220 0.00 0 0.00 54.5 55.8
6/14/19 - 0000 56.2 83 51.2 11.3 WSW | 238 18.7 W | 260 0.00 0 0.00 55.4 80.2
6/13/19 - 2300 58.6 78 51.7 10.6 WSW | 238 16.7 W | 270 0.00 0 0.00 56.6 80.2
6/13/19 - 2200 62.0 69 51.8 9.3 WSW | 238 14.8 SW | 230 0.00 0 0.00 56.6 80.2
6/13/19 - 2100 66.6 63 53.5 5.9 SW | 228 13.3 SSW | 210 0.00 1 0.00 56.6 80.2
6/13/19 - 2000 70.8 58 55.1 5.9 WSW | 252 14.5 SW | 227 0.00 9 0.00 56.6 80.2
6/13/19 - 1900 74.2 57 58.1 7.8 W | 264 16.3 WNW | 295 0.00 22 0.00 56.6 80.2
6/13/19 - 1800 76.0 55 58.9 10.0 WSW | 257 16.8 WSW | 251 0.00 33 0.00 56.6 80.2
6/13/19 - 1700 79.0 52 60.1 10.4 SW | 233 18.7 WSW | 249 0.00 50 0.00 56.6 80.2
6/13/19 - 1600 78.9 52 60.0 11.8 WSW | 240 17.8 W | 264 0.00 56 0.00 56.6 80.2
6/13/19 - 1500 78.0 54 60.1 12.2 WSW | 241 18.0 W | 273 0.00 64 0.00 56.6 79.2
6/13/19 - 1400 76.4 56 59.7 12.2 SW | 234 18.7 W | 275 0.00 68 0.00 56.6 77.4
6/13/19 - 1300 75.0 58 59.0 11.8 SW | 233 18.0 WSW | 245 0.00 69 0.00 56.6 75.8
6/13/19 - 1200 72.1 60 57.3 11.8 WSW | 238 18.7 WSW | 239 0.00 65 0.00 56.6 74.8
6/13/19 - 1100 67.7 66 56.1 11.8 SW | 236 17.3 SW | 220 0.00 58 0.00 56.6 69.7
6/13/19 - 1000 64.1 73 55.1 11.3 WSW | 244 17.0 W | 259 0.00 46 0.00 56.6 66.2
6/13/19 - 0900 61.7 78 54.8 9.8 WSW | 241 16.5 WSW | 248 0.00 33 0.00 56.6 63.1
6/13/19 - 0800 58.8 85 54.2 10.7 WSW | 242 17.7 SW | 236 0.00 17 0.00 56.6 61.9
6/13/19 - 0700 57.1 88 53.6 10.2 WSW | 245 16.5 SW | 230 0.00 3 0.00 56.6 61.9
6/13/19 - 0600 57.1 87 53.5 10.8 WSW | 238 19.2 SW | 219 0.00 0 0.00 56.6 61.9
6/13/19 - 0500 58.6 84 53.9 9.5 SW | 223 16.3 SSW | 206 0.00 0 0.00 57.5 61.9
6/13/19 - 0400 60.2 80 54.0 8.0 SW | 219 12.8 SW | 222 0.00 0 0.00 59.4 61.9
6/13/19 - 0300 60.5 81 54.6 8.0 SW | 226 13.6 SW | 216 0.00 0 0.00 60.0 61.9
6/13/19 - 0200 60.6 85 56.0 8.5 SW | 231 15.7 SSW | 209 0.00 0 0.00 60.1 61.9
6/13/19 - 0100 61.2 84 56.2 8.6 SW | 232 15.3 WSW | 248 0.00 0 0.00 60.5 61.9
6/13/19 - 0000 62.6 80 56.6 8.7 SW | 232 14.2 W | 266 0.00 0 0.00 61.6 95.4
6/12/19 - 2300 64.3 76 56.6 8.6 SW | 230 15.2 W | 276 0.00 0 0.00 63.3 95.4
6/12/19 - 2200 66.1 71 56.6 8.6 WSW | 238 14.6 SW | 236 0.00 0 0.00 65.0 95.4
6/12/19 - 2100 70.1 62 56.2 8.6 SW | 235 13.6 WSW | 239 0.00 1 0.00 67.6 95.4
6/12/19 - 2000 75.6 51 56.2 10.3 WSW | 247 16.2 WSW | 242 0.00 9 0.00 70.6 95.4
6/12/19 - 1900 82.6 40 56.1 10.2 WSW | 246 15.8 SSW | 206 0.00 22 0.00 70.6 95.4
6/12/19 - 1800 85.7 39 58.2 10.4 SW | 235 16.5 WSW | 247 0.00 35 0.00 70.6 95.4
6/12/19 - 1700 89.6 40 61.8 8.5 SW | 230 13.6 SSW | 204 0.00 49 0.00 70.6 95.4
6/12/19 - 1600 91.8 39 63.0 8.5 SW | 230 13.2 WSW | 248 0.00 60 0.00 70.6 95.4
6/12/19 - 1500 93.6 32 59.6 7.8 SW | 229 14.0 WSW | 249 0.00 67 0.00 70.6 95.4
6/12/19 - 1400 94.0 29 57.3 7.1 SW | 231 12.0 WSW | 254 0.00 70 0.00 70.6 95.4
6/12/19 - 1300 93.5 29 56.4 5.1 SW | 214 9.6 SSE | 168 0.00 68 0.00 70.6 95.4
6/12/19 - 1200 91.8 30 55.9 5.1 SW | 219 9.1 SW | 220 0.00 64 0.00 70.6 92.6
6/12/19 - 1100 88.8 33 56.2 4.5 SW | 226 9.0 WSW | 247 0.00 58 0.00 70.6 91.0
6/12/19 - 1000 82.6 44 58.4 4.4 SW | 224 8.1 S | 185 0.00 41 0.00 70.6 86.9
6/12/19 - 0900 78.1 47 56.4 1.6 WSW | 240 8.4 SSW | 201 0.00 18 0.00 70.6 80.0
6/12/19 - 0800 74.2 53 56.1 1.7 WSW | 253 4.1 NNW | 333 0.00 9 0.00 70.6 75.7
6/12/19 - 0700 72.6 55 55.2 2.5 WSW | 238 8.6 WSW | 244 0.00 3 0.00 70.6 75.2
6/12/19 - 0600 71.9 60 57.4 0.7 W | 261 3.4 WSW | 238 0.00 0 0.00 70.6 75.2
6/12/19 - 0500 72.8 57 56.8 1.6 WSW | 246 5.9 WSW | 250 0.00 0 0.00 71.8 75.2
6/12/19 - 0400 73.2 58 57.7 1.9 W | 268 4.1 WNW | 291 0.00 0 0.00 71.8 75.2
6/12/19 - 0300 74.3 55 57.0 1.6 SW | 226 4.3 S | 189 0.00 0 0.00 71.8 75.2
6/12/19 - 0200 73.3 54 55.6 1.2 SW | 234 5.6 SSW | 207 0.00 0 0.00 71.8 75.1
6/12/19 - 0100 73.1 52 54.3 1.5 WSW | 256 3.3 WSW | 255 0.00 0 0.00 72.1 74.0
6/12/19 - 0000 73.8 51 54.4 1.5 WSW | 253 3.4 WSW | 242 0.00 0 0.00 60.6 101.8
6/11/19 - 2300 77.1 44 53.7 0.9 W | 259 2.7 WSW | 249 0.00 0 0.00 60.6 101.8
Max 94.0 92 63.7 12.5 - 20.0 - 0.00 70 0.00 72.1 101.8
Avg 67.1 68 55.1 8.6 - 14.5 - 0.00 25 - - -
Min 52.1 29 49.5 0.7 - 2.7 - 0.00 0 0.00 51.7 54.4
Total - - - - - - - 0.00 - - - -
Tip: Bookmark this page for easy future reference